createdAt,value
2023-01-15T00:03:25.101Z,2.10
2023-01-15T00:07:12.897Z,2.30
2023-01-15T00:11:02.411Z,2.00
2023-01-15T00:14:50.942Z,2.10
2023-01-15T00:18:40.288Z,2.00
2023-01-15T00:22:29.645Z,1.60
2023-01-15T00:26:10.741Z,1.60
2023-01-15T00:30:00.222Z,1.80
2023-01-15T00:33:49.445Z,2.10
2023-01-15T00:37:31.640Z,1.50
2023-01-15T00:41:21.064Z,1.90
2023-01-15T00:45:10.616Z,1.60
2023-01-15T00:48:59.268Z,1.50
2023-01-15T00:52:41.318Z,1.80
2023-01-15T00:56:23.122Z,1.80
2023-01-15T01:00:10.454Z,1.70
2023-01-15T01:03:59.399Z,1.60
2023-01-15T01:07:48.482Z,1.60
2023-01-15T01:11:36.961Z,1.50
2023-01-15T01:15:09.813Z,1.90
2023-01-15T01:18:54.797Z,1.50
2023-01-15T01:22:43.747Z,1.30
2023-01-15T01:26:21.438Z,1.40
2023-01-15T01:30:10.750Z,1.80
2023-01-15T01:33:47.178Z,1.60
2023-01-15T01:37:36.078Z,1.30
2023-01-15T01:41:01.818Z,1.00
2023-01-15T01:45:15.128Z,1.30
2023-01-15T01:49:04.346Z,1.30
2023-01-15T01:52:47.225Z,1.50
2023-01-15T01:56:25.830Z,1.00
2023-01-15T02:00:07.271Z,1.40
2023-01-15T02:03:46.635Z,1.00
2023-01-15T02:07:35.627Z,1.30
2023-01-15T02:11:23.304Z,1.20
2023-01-15T02:15:12.186Z,0.90
2023-01-15T02:18:52.778Z,1.30
2023-01-15T02:22:43.091Z,1.30
2023-01-15T02:26:47.630Z,1.20
2023-01-15T02:30:53.170Z,1.10
2023-01-15T02:34:41.131Z,1.40
2023-01-15T02:38:16.193Z,1.00
2023-01-15T02:41:57.129Z,1.00
2023-01-15T02:45:24.084Z,1.60
2023-01-15T02:49:13.503Z,1.00
2023-01-15T02:53:05.125Z,1.10
2023-01-15T02:56:39.872Z,1.00
2023-01-15T03:04:02.129Z,0.90
2023-01-15T03:07:49.513Z,0.90
2023-01-15T03:11:47.525Z,0.90
2023-01-15T03:15:42.374Z,1.10
2023-01-15T03:19:31.701Z,1.10
2023-01-15T03:23:29.710Z,1.20
2023-01-15T03:27:19.104Z,1.20
2023-01-15T03:31:08.397Z,0.90
2023-01-15T03:34:58.170Z,1.20
2023-01-15T03:38:47.349Z,1.30
2023-01-15T03:42:51.202Z,1.20
2023-01-15T03:46:40.136Z,1.20
2023-01-15T03:50:27.820Z,1.20
2023-01-15T03:54:22.652Z,1.20
2023-01-15T03:58:18.261Z,1.50
2023-01-15T04:02:08.001Z,1.30
2023-01-15T04:05:37.502Z,1.10
2023-01-15T04:09:26.834Z,1.20
2023-01-15T04:13:07.781Z,1.30
2023-01-15T04:16:47.896Z,1.10
2023-01-15T04:20:37.017Z,1.20
2023-01-15T04:24:26.014Z,1.30
2023-01-15T04:27:58.668Z,1.10
2023-01-15T04:31:48.197Z,1.10
2023-01-15T04:35:36.464Z,1.30
2023-01-15T04:38:57.381Z,1.10
2023-01-15T04:42:45.184Z,1.20
2023-01-15T04:46:26.678Z,1.20
2023-01-15T04:50:15.640Z,1.90
2023-01-15T04:53:41.819Z,2.50
2023-01-15T04:57:30.914Z,2.70
2023-01-15T05:01:20.319Z,2.40
2023-01-15T05:05:09.575Z,1.60
2023-01-15T05:08:57.705Z,1.20
2023-01-15T05:12:47.244Z,1.10
2023-01-15T05:16:36.580Z,1.30
2023-01-15T05:20:11.104Z,1.60
2023-01-15T05:23:53.024Z,1.50
2023-01-15T05:27:13.155Z,1.50
2023-01-15T05:31:01.904Z,1.10
2023-01-15T05:34:50.800Z,1.10
2023-01-15T05:38:33.049Z,1.30
2023-01-15T05:42:36.567Z,1.20
2023-01-15T05:46:18.464Z,1.20
2023-01-15T05:50:01.064Z,1.30
2023-01-15T05:53:03.387Z,1.00
2023-01-15T05:56:35.846Z,0.90
2023-01-15T05:59:58.747Z,1.00
2023-01-15T06:03:50.445Z,1.10
2023-01-15T06:07:38.077Z,1.10
2023-01-15T06:11:28.688Z,1.30
2023-01-15T06:15:07.031Z,1.00
2023-01-15T06:18:56.088Z,1.10
2023-01-15T06:22:44.041Z,1.20
2023-01-15T06:26:36.284Z,1.00
2023-01-15T06:30:25.856Z,1.00
2023-01-15T06:34:00.207Z,1.30
2023-01-15T06:37:49.083Z,1.00
2023-01-15T06:41:36.441Z,1.40
2023-01-15T06:45:09.190Z,1.40
2023-01-15T06:48:58.721Z,1.40
2023-01-15T06:52:20.301Z,1.60
2023-01-15T06:56:02.069Z,1.40
2023-01-15T06:59:51.383Z,1.40
2023-01-15T07:03:28.291Z,1.30
2023-01-15T07:07:16.640Z,1.30
2023-01-15T07:10:36.509Z,1.50
2023-01-15T07:14:16.757Z,1.90
2023-01-15T07:17:50.268Z,2.10
2023-01-15T07:21:17.108Z,1.60
2023-01-15T07:24:42.801Z,1.50
2023-01-15T07:27:42.029Z,1.30
2023-01-15T07:31:12.444Z,1.40
2023-01-15T07:34:37.945Z,1.20
2023-01-15T07:38:07.587Z,1.40
2023-01-15T07:41:56.146Z,1.60
2023-01-15T07:45:21.348Z,1.30
2023-01-15T07:48:58.496Z,1.20
2023-01-15T07:52:17.321Z,1.20
2023-01-15T07:55:43.785Z,1.10
2023-01-15T07:59:36.625Z,1.00
2023-01-15T08:03:15.345Z,0.90
2023-01-15T08:06:49.702Z,1.10
2023-01-15T08:10:38.312Z,2.70
2023-01-15T08:14:02.889Z,1.10
2023-01-15T08:17:51.669Z,1.70
2023-01-15T08:21:15.635Z,1.00
2023-01-15T08:24:38.273Z,1.30
2023-01-15T08:28:27.985Z,1.10
2023-01-15T08:32:17.973Z,1.20
2023-01-15T08:35:42.393Z,1.30
2023-01-15T08:39:31.664Z,1.30
2023-01-15T08:43:03.624Z,1.40
2023-01-15T08:46:35.152Z,1.20
2023-01-15T08:50:00.896Z,1.00
2023-01-15T08:53:31.221Z,1.80
2023-01-15T08:57:15.252Z,1.10
2023-01-15T09:00:56.210Z,1.00
2023-01-15T09:04:31.560Z,2.00
2023-01-15T09:08:12.654Z,1.40
2023-01-15T09:11:40.474Z,1.70
2023-01-15T09:15:20.906Z,1.40
2023-01-15T09:18:34.249Z,1.70
2023-01-15T09:21:42.033Z,1.30
2023-01-15T09:25:05.628Z,1.50
2023-01-15T09:28:42.537Z,1.30
2023-01-15T09:32:03.744Z,1.10
2023-01-15T09:35:43.769Z,1.20
2023-01-15T09:39:14.537Z,1.50
2023-01-15T09:42:56.543Z,1.40
2023-01-15T09:46:37.800Z,0.70
2023-01-15T09:50:16.622Z,0.40
2023-01-15T09:53:59.738Z,0.40
2023-01-15T09:57:45.035Z,0.60
2023-01-15T10:01:19.223Z,0.40
2023-01-15T10:05:05.517Z,0.50
2023-01-15T10:08:39.543Z,0.70
2023-01-15T10:12:27.762Z,0.80
2023-01-15T10:16:19.555Z,0.90
2023-01-15T10:20:01.572Z,0.70
2023-01-15T10:23:38.816Z,1.10
2023-01-15T10:27:34.771Z,0.80
2023-01-15T10:31:19.613Z,0.70
2023-01-15T10:35:02.476Z,0.80
2023-01-15T10:38:46.651Z,1.10
2023-01-15T10:42:52.085Z,1.10
2023-01-15T10:46:27.584Z,1.20
2023-01-15T10:50:01.369Z,1.10
2023-01-15T10:53:30.258Z,1.10
2023-01-15T10:57:38.034Z,1.30
2023-01-15T11:01:21.680Z,1.20
2023-01-15T11:05:10.529Z,1.30
2023-01-15T11:09:09.738Z,1.20
2023-01-15T11:13:23.896Z,1.70
2023-01-15T11:17:28.107Z,3.70
2023-01-15T11:21:17.606Z,3.10
2023-01-15T11:25:08.513Z,4.70
2023-01-15T11:28:58.250Z,5.50
2023-01-15T11:32:47.746Z,3.10
2023-01-15T11:36:19.944Z,1.90
2023-01-15T11:40:09.728Z,1.40
2023-01-15T11:43:58.423Z,1.10
2023-01-15T11:47:49.619Z,2.00
2023-01-15T11:51:41.773Z,2.90
2023-01-15T11:55:12.973Z,2.00
2023-01-15T11:59:02.922Z,1.70
2023-01-15T12:02:46.249Z,1.60
2023-01-15T12:06:37.533Z,1.70
2023-01-15T12:10:27.071Z,1.50
2023-01-15T12:14:25.827Z,1.20
2023-01-15T12:18:21.578Z,2.10
2023-01-15T12:22:17.852Z,1.50
2023-01-15T12:26:04.517Z,1.50
2023-01-15T12:29:50.067Z,2.20
2023-01-15T12:33:34.018Z,1.90
2023-01-15T12:37:22.735Z,2.70
2023-01-15T12:41:08.143Z,2.30
2023-01-15T12:44:56.223Z,2.50
2023-01-15T12:48:54.620Z,2.80
2023-01-15T12:52:49.790Z,2.50
2023-01-15T12:56:41.996Z,2.50
2023-01-15T13:00:46.480Z,1.80
2023-01-15T13:04:51.495Z,1.40
2023-01-15T13:08:30.236Z,1.80
2023-01-15T13:12:19.734Z,1.90
2023-01-15T13:16:01.909Z,1.70
2023-01-15T13:19:46.514Z,2.30
2023-01-15T13:23:21.682Z,2.50
2023-01-15T13:27:08.972Z,2.70
2023-01-15T13:31:07.520Z,3.40
2023-01-15T13:34:39.289Z,3.90
2023-01-15T13:38:30.611Z,4.50
2023-01-15T13:42:23.755Z,5.60
2023-01-15T13:46:16.539Z,6.00
2023-01-15T13:50:08.023Z,6.80
2023-01-15T13:53:50.326Z,8.00
2023-01-15T13:57:30.114Z,7.40
2023-01-15T14:01:39.936Z,7.70
2023-01-15T14:05:33.849Z,7.50
2023-01-15T14:09:25.976Z,6.70
2023-01-15T14:13:18.555Z,6.80
2023-01-15T14:17:19.890Z,7.10
2023-01-15T14:22:13.335Z,5.10
2023-01-15T14:26:47.919Z,5.70
2023-01-15T14:31:14.348Z,5.30
2023-01-15T14:35:43.885Z,4.10
2023-01-15T14:40:10.927Z,3.70
2023-01-15T14:44:39.599Z,4.40
2023-01-15T14:49:09.449Z,3.40
2023-01-15T14:53:37.764Z,3.40
2023-01-15T14:58:06.735Z,5.00
2023-01-15T15:02:40.456Z,5.60
2023-01-15T15:07:08.638Z,5.80
2023-01-15T15:11:37.442Z,5.10
2023-01-15T15:16:18.043Z,5.00
2023-01-15T15:21:05.215Z,4.80
2023-01-15T15:25:38.198Z,4.90
2023-01-15T15:30:08.076Z,6.10
2023-01-15T15:34:36.475Z,4.50
2023-01-15T15:39:04.674Z,4.90
2023-01-15T15:43:42.975Z,4.90
2023-01-15T15:48:18.801Z,5.00
2023-01-15T15:52:55.496Z,4.50
2023-01-15T15:57:23.422Z,4.90
2023-01-15T16:01:52.668Z,4.70
2023-01-15T16:06:20.487Z,4.90
2023-01-15T16:10:51.385Z,4.80
2023-01-15T16:15:20.345Z,4.40
2023-01-15T16:19:51.676Z,4.20
2023-01-15T16:24:41.552Z,4.60
2023-01-15T16:29:22.349Z,4.90
2023-01-15T16:33:50.869Z,6.00
2023-01-15T16:38:28.156Z,5.40
2023-01-15T16:43:05.517Z,6.00
2023-01-15T16:47:33.968Z,6.00
2023-01-15T16:52:11.421Z,5.50
2023-01-15T16:56:45.408Z,4.50
2023-01-15T17:01:14.060Z,4.40
2023-01-15T17:05:42.173Z,4.00
2023-01-15T17:10:10.186Z,4.00
2023-01-15T17:14:47.455Z,4.30
2023-01-15T17:19:21.774Z,3.90
2023-01-15T17:23:49.202Z,3.80
2023-01-15T17:28:17.889Z,5.00
2023-01-15T17:32:46.250Z,4.90
2023-01-15T17:37:14.122Z,5.40
2023-01-15T17:41:42.184Z,5.00
2023-01-15T17:46:21.812Z,5.30
2023-01-15T17:50:50.859Z,4.70
2023-01-15T17:55:19.056Z,4.70
2023-01-15T17:59:43.986Z,4.90
2023-01-15T18:04:13.077Z,4.70
2023-01-15T18:08:41.610Z,4.60
2023-01-15T18:13:10.723Z,4.70
2023-01-15T18:17:39.010Z,4.40
2023-01-15T18:22:07.552Z,4.80
2023-01-15T18:26:36.080Z,4.20
2023-01-15T18:31:04.272Z,3.90
2023-01-15T18:35:32.628Z,3.70
2023-01-15T18:40:00.595Z,3.60
2023-01-15T18:44:28.170Z,3.90
2023-01-15T18:48:38.209Z,3.70
2023-01-15T18:53:13.249Z,3.50
2023-01-15T18:57:41.882Z,3.00
2023-01-15T19:02:11.237Z,3.00
2023-01-15T19:06:48.470Z,2.90
2023-01-15T19:11:17.257Z,3.00
2023-01-15T19:15:44.223Z,3.00
2023-01-15T19:20:13.170Z,2.70
2023-01-15T19:24:42.217Z,2.80
2023-01-15T19:29:15.567Z,2.80
2023-01-15T19:33:44.138Z,2.50
2023-01-15T19:38:15.403Z,3.40
2023-01-15T19:42:43.098Z,3.30
2023-01-15T19:47:09.977Z,3.00
2023-01-15T19:51:38.616Z,3.80
2023-01-15T19:56:07.127Z,3.10
2023-01-15T20:00:41.789Z,3.10
2023-01-15T20:05:13.439Z,2.90
2023-01-15T20:09:44.150Z,3.40
2023-01-15T20:14:15.613Z,3.10
2023-01-15T20:18:51.702Z,2.80
2023-01-15T20:23:21.094Z,2.60
2023-01-15T20:27:29.239Z,3.20
2023-01-15T20:31:58.532Z,2.80
2023-01-15T20:36:26.775Z,3.00
2023-01-15T20:41:01.316Z,3.10
2023-01-15T20:45:33.587Z,3.10
2023-01-15T20:50:02.025Z,3.10
2023-01-15T20:54:31.613Z,2.70
2023-01-15T20:59:00.532Z,3.00
2023-01-15T21:03:31.178Z,2.60
2023-01-15T21:08:00.566Z,2.30
2023-01-15T21:12:29.039Z,2.90
2023-01-15T21:16:39.774Z,2.40
2023-01-15T21:21:07.491Z,2.50
2023-01-15T21:25:35.250Z,2.40
2023-01-15T21:29:45.453Z,2.60
2023-01-15T21:34:14.092Z,2.30
2023-01-15T21:38:22.381Z,2.40
2023-01-15T21:42:48.566Z,2.30
2023-01-15T21:47:16.520Z,2.40
2023-01-15T21:51:44.854Z,2.40
2023-01-15T21:56:12.255Z,2.00
2023-01-15T22:00:20.925Z,2.00
2023-01-15T22:04:49.059Z,1.90
2023-01-15T22:09:18.171Z,1.80
2023-01-15T22:13:46.686Z,2.20
2023-01-15T22:18:14.706Z,2.20
2023-01-15T22:22:24.993Z,2.10
2023-01-15T22:26:58.593Z,2.10
2023-01-15T22:31:26.177Z,1.90
2023-01-15T22:35:34.237Z,2.20
2023-01-15T22:40:02.250Z,2.20
2023-01-15T22:44:30.869Z,2.20
2023-01-15T22:48:39.436Z,1.90
2023-01-15T22:53:08.339Z,2.10
2023-01-15T22:57:36.226Z,2.20
2023-01-15T23:02:04.204Z,1.90
2023-01-15T23:06:32.233Z,1.70
2023-01-15T23:11:00.181Z,1.80
2023-01-15T23:15:27.607Z,2.00
2023-01-15T23:19:55.199Z,1.90
2023-01-15T23:24:22.589Z,1.60
2023-01-15T23:28:30.424Z,1.80
2023-01-15T23:32:58.387Z,1.80
2023-01-15T23:37:25.694Z,1.80
2023-01-15T23:41:51.922Z,2.10
2023-01-15T23:45:39.268Z,1.90
2023-01-15T23:50:03.128Z,2.10
2023-01-15T23:54:30.378Z,2.10
2023-01-15T23:58:58.661Z,2.20
